createdAt,value
2023-02-15T00:00:30.927Z,38.13
2023-02-15T00:03:53.329Z,36.42
2023-02-15T00:07:17.776Z,34.22
2023-02-15T00:10:40.134Z,35.50
2023-02-15T00:14:02.347Z,34.92
2023-02-15T00:17:24.748Z,33.40
2023-02-15T00:20:46.987Z,33.15
2023-02-15T00:24:11.550Z,30.73
2023-02-15T00:27:35.039Z,31.23
2023-02-15T00:31:24.989Z,30.63
2023-02-15T00:34:47.237Z,27.25
2023-02-15T00:38:09.532Z,28.48
2023-02-15T00:41:33.100Z,26.17
2023-02-15T00:44:55.450Z,26.48
2023-02-15T00:48:17.828Z,25.20
2023-02-15T00:51:40.593Z,25.35
2023-02-15T00:55:02.901Z,23.75
2023-02-15T00:58:25.610Z,23.65
2023-02-15T01:01:47.893Z,24.15
2023-02-15T01:05:10.397Z,22.30
2023-02-15T01:08:33.326Z,22.30
2023-02-15T01:11:55.792Z,21.40
2023-02-15T01:15:18.271Z,21.67
2023-02-15T01:18:40.519Z,21.73
2023-02-15T01:22:04.017Z,21.23
2023-02-15T01:25:28.249Z,20.77
2023-02-15T01:28:51.089Z,19.25
2023-02-15T01:32:13.429Z,19.02
2023-02-15T01:35:38.265Z,18.50
2023-02-15T01:39:02.065Z,18.23
2023-02-15T01:42:28.366Z,17.88
2023-02-15T01:45:51.110Z,16.85
2023-02-15T01:49:17.626Z,16.50
2023-02-15T01:52:45.614Z,16.95
2023-02-15T01:56:15.945Z,16.77
2023-02-15T01:59:41.784Z,15.13
2023-02-15T02:03:05.051Z,16.20
2023-02-15T02:06:28.020Z,15.48
2023-02-15T02:09:50.794Z,16.23
2023-02-15T02:13:13.112Z,15.20
2023-02-15T02:16:57.260Z,14.90
2023-02-15T02:20:52.101Z,15.20
2023-02-15T02:24:51.884Z,13.18
2023-02-15T02:28:20.038Z,14.40
2023-02-15T02:31:46.798Z,14.02
2023-02-15T02:35:17.213Z,12.80
2023-02-15T02:39:00.649Z,12.38
2023-02-15T02:42:34.469Z,12.82
2023-02-15T02:46:05.045Z,13.35
2023-02-15T02:49:35.448Z,10.73
2023-02-15T02:52:59.443Z,12.00
2023-02-15T02:56:31.444Z,11.05
2023-02-15T02:59:58.690Z,11.15
2023-02-15T03:03:33.048Z,11.60
2023-02-15T03:07:00.342Z,10.45
2023-02-15T03:10:24.909Z,10.95
2023-02-15T03:13:49.860Z,11.07
2023-02-15T03:17:14.387Z,10.95
2023-02-15T03:20:38.856Z,11.38
2023-02-15T03:24:16.535Z,10.63
2023-02-15T03:27:44.771Z,10.50
2023-02-15T03:31:09.601Z,9.88
2023-02-15T03:34:32.015Z,10.47
2023-02-15T03:38:02.540Z,10.63
2023-02-15T03:41:30.222Z,10.25
2023-02-15T03:44:59.947Z,10.10
2023-02-15T03:48:48.097Z,10.10
2023-02-15T03:52:12.470Z,9.70
2023-02-15T03:55:35.870Z,9.82
2023-02-15T03:59:16.900Z,8.88
2023-02-15T04:03:10.127Z,9.13
2023-02-15T04:06:32.418Z,9.65
2023-02-15T04:10:13.112Z,9.25
2023-02-15T04:13:35.443Z,8.93
2023-02-15T04:16:57.632Z,8.20
2023-02-15T04:20:38.404Z,9.55
2023-02-15T04:24:19.091Z,8.43
2023-02-15T04:27:53.751Z,8.13
2023-02-15T04:31:16.075Z,8.85
2023-02-15T04:34:38.435Z,8.55
2023-02-15T04:38:00.941Z,7.50
2023-02-15T04:41:23.189Z,8.10
2023-02-15T04:44:45.431Z,8.95
2023-02-15T04:48:07.719Z,8.35
2023-02-15T04:51:30.276Z,7.63
2023-02-15T04:54:52.588Z,7.68
2023-02-15T04:58:14.802Z,7.32
2023-02-15T05:01:37.065Z,7.97
2023-02-15T05:04:59.295Z,8.18
2023-02-15T05:08:21.848Z,7.60
2023-02-15T05:11:44.154Z,7.53
2023-02-15T05:15:06.592Z,6.68
2023-02-15T05:18:28.860Z,6.97
2023-02-15T05:21:51.236Z,7.22
2023-02-15T05:25:32.006Z,7.32
2023-02-15T05:28:54.294Z,7.32
2023-02-15T05:32:16.702Z,6.53
2023-02-15T05:35:39.198Z,6.65
2023-02-15T05:39:01.567Z,6.65
2023-02-15T05:42:23.900Z,5.50
2023-02-15T05:45:50.722Z,6.57
2023-02-15T05:49:13.027Z,6.05
2023-02-15T05:52:35.829Z,6.05
2023-02-15T05:56:00.851Z,6.47
2023-02-15T05:59:23.904Z,6.35
2023-02-15T06:02:46.270Z,6.40
2023-02-15T06:06:09.047Z,5.68
2023-02-15T06:09:31.428Z,6.20
2023-02-15T06:12:53.666Z,5.28
2023-02-15T06:16:17.628Z,5.25
2023-02-15T06:19:39.921Z,5.82
2023-02-15T06:23:02.205Z,5.97
2023-02-15T06:26:24.502Z,5.68
2023-02-15T06:29:46.765Z,6.60
2023-02-15T06:33:09.153Z,6.28
2023-02-15T06:36:32.556Z,5.68
2023-02-15T06:39:55.089Z,6.45
2023-02-15T06:43:17.326Z,5.70
2023-02-15T06:46:39.763Z,5.55
2023-02-15T06:50:02.168Z,6.10
2023-02-15T06:53:24.572Z,5.82
2023-02-15T06:56:46.854Z,4.88
2023-02-15T07:00:09.621Z,5.50
2023-02-15T07:03:32.238Z,5.78
2023-02-15T07:06:54.508Z,5.45
2023-02-15T07:10:17.050Z,5.85
2023-02-15T07:13:39.331Z,5.88
2023-02-15T07:17:01.697Z,5.60
2023-02-15T07:20:25.081Z,5.60
2023-02-15T07:23:47.404Z,5.47
2023-02-15T07:27:09.682Z,5.53
2023-02-15T07:30:32.217Z,5.35
2023-02-15T07:33:54.546Z,5.75
2023-02-15T07:37:16.852Z,5.60
2023-02-15T07:40:39.083Z,5.72
2023-02-15T07:44:01.382Z,5.88
2023-02-15T07:47:23.678Z,5.53
2023-02-15T07:50:45.978Z,6.05
2023-02-15T07:54:08.520Z,5.63
2023-02-15T07:57:30.819Z,5.20
2023-02-15T08:00:59.180Z,5.70
2023-02-15T08:04:21.407Z,5.72
2023-02-15T08:07:43.660Z,5.45
2023-02-15T08:11:38.627Z,5.82
2023-02-15T08:15:00.916Z,5.35
2023-02-15T08:18:23.278Z,5.32
2023-02-15T08:21:48.380Z,5.95
2023-02-15T08:25:10.753Z,5.80
2023-02-15T08:28:33.029Z,5.65
2023-02-15T08:32:07.821Z,5.57
2023-02-15T08:35:30.177Z,6.33
2023-02-15T08:38:52.801Z,5.93
2023-02-15T08:42:15.048Z,5.15
2023-02-15T08:45:37.348Z,5.25
2023-02-15T08:49:00.045Z,5.18
2023-02-15T08:52:22.304Z,5.72
2023-02-15T08:55:44.778Z,5.82
2023-02-15T08:59:12.220Z,5.32
2023-02-15T09:02:34.719Z,5.15
2023-02-15T09:06:01.983Z,5.25
2023-02-15T09:09:24.297Z,5.45
2023-02-15T09:12:46.669Z,5.10
2023-02-15T09:16:10.354Z,5.30
2023-02-15T09:19:32.696Z,4.90
2023-02-15T09:22:58.069Z,5.50
2023-02-15T09:26:22.827Z,5.57
2023-02-15T09:29:45.094Z,5.10
2023-02-15T09:33:07.762Z,4.82
2023-02-15T09:36:33.726Z,5.18
2023-02-15T09:39:56.077Z,4.93
2023-02-15T09:43:49.829Z,4.97
2023-02-15T09:47:50.153Z,5.18
2023-02-15T09:51:27.441Z,5.07
2023-02-15T09:55:20.440Z,4.80
2023-02-15T09:58:51.824Z,4.70
2023-02-15T10:02:39.690Z,4.38
2023-02-15T10:06:24.939Z,4.90
2023-02-15T10:09:53.236Z,4.90
2023-02-15T10:13:30.287Z,5.03
2023-02-15T10:17:01.901Z,5.07
2023-02-15T10:20:30.127Z,4.78
2023-02-15T10:24:40.579Z,5.38
2023-02-15T10:28:12.486Z,5.75
2023-02-15T10:31:54.281Z,4.40
2023-02-15T10:35:42.964Z,4.70
2023-02-15T10:39:38.422Z,5.10
2023-02-15T10:43:41.649Z,4.50
2023-02-15T10:47:18.571Z,4.25
2023-02-15T10:50:50.565Z,4.20
2023-02-15T10:54:33.862Z,4.93
2023-02-15T10:58:14.338Z,4.85
2023-02-15T11:01:46.995Z,4.85
2023-02-15T11:05:32.654Z,4.22
2023-02-15T11:09:01.173Z,4.40
2023-02-15T11:12:28.088Z,4.10
2023-02-15T11:15:58.456Z,4.47
2023-02-15T11:19:23.467Z,3.95
2023-02-15T11:22:50.094Z,4.22
2023-02-15T11:26:47.067Z,4.03
2023-02-15T11:30:16.430Z,3.95
2023-02-15T11:33:43.026Z,4.30
2023-02-15T11:37:19.215Z,3.95
2023-02-15T11:41:06.345Z,4.28
2023-02-15T11:44:36.928Z,4.40
2023-02-15T11:48:01.680Z,4.32
2023-02-15T11:51:24.540Z,4.18
2023-02-15T11:54:53.416Z,4.43
2023-02-15T11:58:24.919Z,4.47
2023-02-15T12:01:48.199Z,3.65
2023-02-15T12:05:18.467Z,4.25
2023-02-15T12:08:47.121Z,4.22
2023-02-15T12:12:24.103Z,4.28
2023-02-15T12:15:50.747Z,4.05
2023-02-15T12:19:24.933Z,4.32
2023-02-15T12:22:53.095Z,4.00
2023-02-15T12:26:16.226Z,4.25
2023-02-15T12:29:44.206Z,4.60
2023-02-15T12:33:17.350Z,4.03
2023-02-15T12:36:55.211Z,4.30
2023-02-15T12:40:30.882Z,4.20
2023-02-15T12:44:14.090Z,4.05
2023-02-15T12:47:37.034Z,4.10
2023-02-15T12:51:09.532Z,3.80
2023-02-15T12:54:35.537Z,3.65
2023-02-15T12:58:33.889Z,4.20
2023-02-15T13:01:56.535Z,4.20
2023-02-15T13:05:37.594Z,5.00
2023-02-15T13:09:15.563Z,4.35
2023-02-15T13:12:37.791Z,4.63
2023-02-15T13:16:06.893Z,4.57
2023-02-15T13:19:32.071Z,4.40
2023-02-15T13:23:05.240Z,3.97
2023-02-15T13:26:31.707Z,4.00
2023-02-15T13:30:01.719Z,3.90
2023-02-15T13:33:34.261Z,3.80
2023-02-15T13:37:18.221Z,4.00
2023-02-15T13:40:59.654Z,4.20
2023-02-15T13:44:58.079Z,3.97
2023-02-15T13:48:50.832Z,3.90
2023-02-15T13:52:23.126Z,4.15
2023-02-15T13:55:53.194Z,3.65
2023-02-15T13:59:36.270Z,3.90
2023-02-15T14:03:01.156Z,8.07
2023-02-15T14:06:37.835Z,9.20
2023-02-15T14:10:27.293Z,9.50
2023-02-15T14:14:15.155Z,9.52
2023-02-15T14:18:13.657Z,7.57
2023-02-15T14:21:49.818Z,7.93
2023-02-15T14:25:29.546Z,8.80
2023-02-15T14:29:12.205Z,8.57
2023-02-15T14:32:39.707Z,7.43
2023-02-15T14:36:03.871Z,7.28
2023-02-15T14:40:03.141Z,7.63
2023-02-15T14:43:56.035Z,7.60
2023-02-15T14:47:28.870Z,6.68
2023-02-15T14:50:51.428Z,6.75
2023-02-15T14:54:36.267Z,6.63
2023-02-15T14:57:59.956Z,7.00
2023-02-15T15:01:32.947Z,6.10
2023-02-15T15:05:03.256Z,6.40
2023-02-15T15:08:39.385Z,6.13
2023-02-15T15:12:22.186Z,5.43
2023-02-15T15:15:48.026Z,5.78
2023-02-15T15:19:49.790Z,5.82
2023-02-15T15:23:15.986Z,6.45
2023-02-15T15:26:41.772Z,7.05
2023-02-15T15:30:24.086Z,5.70
2023-02-15T15:34:21.003Z,5.78
2023-02-15T15:37:53.439Z,5.90
2023-02-15T15:41:43.733Z,4.95
2023-02-15T15:45:15.218Z,5.75
2023-02-15T15:48:39.874Z,5.45
2023-02-15T15:52:04.187Z,5.63
2023-02-15T15:55:29.703Z,5.25
2023-02-15T15:59:00.297Z,4.93
2023-02-15T16:02:24.586Z,4.88
2023-02-15T16:05:46.940Z,5.30
2023-02-15T16:09:23.791Z,4.72
2023-02-15T16:12:48.935Z,4.63
2023-02-15T16:16:14.203Z,4.90
2023-02-15T16:23:03.978Z,4.82
2023-02-15T16:29:51.228Z,3.97
2023-02-15T16:33:16.166Z,4.05
2023-02-15T16:36:38.415Z,4.60
2023-02-15T16:40:01.220Z,4.32
2023-02-15T16:43:27.702Z,4.20
2023-02-15T16:46:54.797Z,4.68
2023-02-15T16:50:25.131Z,4.60
2023-02-15T16:53:49.392Z,5.07
2023-02-15T16:57:20.836Z,4.47
2023-02-15T17:00:43.628Z,4.57
2023-02-15T17:04:23.634Z,4.20
2023-02-15T17:08:04.484Z,4.05
2023-02-15T17:11:47.087Z,4.10
2023-02-15T17:15:27.154Z,4.60
2023-02-15T17:18:49.498Z,4.22
2023-02-15T17:22:19.656Z,4.15
2023-02-15T17:25:44.187Z,4.55
2023-02-15T17:29:27.937Z,4.32
2023-02-15T17:33:02.544Z,3.95
2023-02-15T17:36:29.529Z,4.50
2023-02-15T17:39:52.014Z,4.43
2023-02-15T17:43:14.276Z,4.95
2023-02-15T17:46:38.112Z,4.88
2023-02-15T17:50:04.209Z,4.35
2023-02-15T17:53:26.677Z,4.45
2023-02-15T17:56:48.960Z,5.22
2023-02-15T18:00:33.845Z,4.13
2023-02-15T18:04:15.419Z,4.18
2023-02-15T18:07:56.514Z,4.88
2023-02-15T18:11:37.554Z,4.05
2023-02-15T18:15:01.410Z,4.35
2023-02-15T18:18:24.404Z,4.60
2023-02-15T18:21:47.550Z,4.03
2023-02-15T18:25:18.972Z,4.75
2023-02-15T18:28:41.290Z,3.63
2023-02-15T18:32:07.662Z,4.25
2023-02-15T18:35:32.754Z,4.25
2023-02-15T18:38:56.386Z,4.68
2023-02-15T18:42:23.722Z,4.03
2023-02-15T18:45:46.340Z,4.80
2023-02-15T18:49:08.660Z,4.32
2023-02-15T18:52:36.090Z,3.78
2023-02-15T18:55:59.076Z,4.00
2023-02-15T18:59:22.818Z,3.92
2023-02-15T19:02:45.532Z,4.35
2023-02-15T19:06:12.012Z,4.15
2023-02-15T19:09:34.393Z,4.10
2023-02-15T19:12:57.480Z,4.30
2023-02-15T19:16:31.271Z,3.70
2023-02-15T19:19:53.857Z,3.60
2023-02-15T19:23:20.935Z,3.97
2023-02-15T19:26:46.016Z,3.90
2023-02-15T19:33:41.721Z,3.92
2023-02-15T19:37:07.854Z,3.70
2023-02-15T19:40:33.221Z,3.72
2023-02-15T19:47:19.678Z,3.30
2023-02-15T19:50:46.083Z,4.03
2023-02-15T19:54:48.207Z,3.55
2023-02-15T19:58:13.927Z,3.33
2023-02-15T20:01:36.214Z,3.60
2023-02-15T20:04:58.552Z,3.75
2023-02-15T20:08:22.720Z,4.55
2023-02-15T20:11:45.082Z,4.53
2023-02-15T20:15:17.666Z,4.50
2023-02-15T20:18:39.919Z,4.07
2023-02-15T20:22:02.249Z,4.22
2023-02-15T20:25:28.378Z,4.13
2023-02-15T20:28:51.035Z,3.95
2023-02-15T20:32:13.766Z,3.72
2023-02-15T20:35:36.194Z,3.50
2023-02-15T20:39:00.889Z,3.60
2023-02-15T20:42:23.504Z,4.18
2023-02-15T20:45:47.869Z,3.33
2023-02-15T20:49:10.549Z,3.72
2023-02-15T20:52:32.958Z,3.38
2023-02-15T20:55:56.330Z,3.45
2023-02-15T20:59:31.070Z,3.25
2023-02-15T21:02:58.485Z,3.20
2023-02-15T21:06:21.222Z,3.20
2023-02-15T21:09:44.471Z,3.40
2023-02-15T21:13:18.772Z,3.28
2023-02-15T21:16:42.283Z,3.47
2023-02-15T21:20:04.945Z,3.35
2023-02-15T21:23:45.586Z,3.95
2023-02-15T21:27:13.288Z,3.55
2023-02-15T21:30:35.627Z,3.40
2023-02-15T21:33:57.960Z,3.30
2023-02-15T21:37:32.714Z,3.53
2023-02-15T21:40:55.043Z,3.50
2023-02-15T21:44:41.468Z,3.60
2023-02-15T21:48:04.356Z,3.50
2023-02-15T21:51:45.054Z,3.17
2023-02-15T21:55:14.323Z,3.45
2023-02-15T21:58:37.652Z,4.15
2023-02-15T22:02:00.126Z,3.78
2023-02-15T22:05:28.129Z,3.42
2023-02-15T22:08:50.638Z,3.88
2023-02-15T22:12:17.648Z,3.38
2023-02-15T22:15:40.015Z,3.65
2023-02-15T22:19:02.261Z,4.00
2023-02-15T22:22:24.535Z,3.95
2023-02-15T22:25:58.975Z,4.15
2023-02-15T22:29:21.881Z,3.72
2023-02-15T22:32:44.197Z,3.50
2023-02-15T22:36:06.847Z,4.20
2023-02-15T22:39:29.094Z,3.78
2023-02-15T22:42:52.819Z,4.00
2023-02-15T22:46:17.565Z,3.50
2023-02-15T22:49:39.819Z,4.03
2023-02-15T22:53:03.478Z,3.33
2023-02-15T22:56:37.511Z,4.13
2023-02-15T23:00:01.282Z,3.72
2023-02-15T23:03:28.955Z,3.65
2023-02-15T23:06:53.312Z,3.90
2023-02-15T23:10:23.009Z,3.27
2023-02-15T23:13:48.201Z,3.67
2023-02-15T23:17:10.474Z,3.90
2023-02-15T23:20:32.762Z,4.15
2023-02-15T23:23:58.161Z,3.67
2023-02-15T23:27:39.211Z,3.85
2023-02-15T23:31:02.623Z,3.50
2023-02-15T23:34:29.274Z,4.07
2023-02-15T23:37:51.569Z,3.60
2023-02-15T23:41:20.248Z,3.78
2023-02-15T23:44:44.247Z,3.95
2023-02-15T23:48:37.208Z,3.83
2023-02-15T23:51:59.818Z,3.38
2023-02-15T23:55:23.071Z,3.40
2023-02-15T23:58:46.661Z,3.78
